createdAt,value
2019-03-30T00:00:40.293Z,76.07
2019-03-30T00:01:40.283Z,76.27
2019-03-30T00:02:40.295Z,76.14
2019-03-30T00:03:40.266Z,75.93
2019-03-30T00:04:40.256Z,76.34
2019-03-30T00:05:40.240Z,76.58
2019-03-30T00:06:40.227Z,75.86
2019-03-30T00:07:40.241Z,76.68
2019-03-30T00:08:40.210Z,76.58
2019-03-30T00:09:40.195Z,76.48
2019-03-30T00:10:40.186Z,76.07
2019-03-30T00:11:40.181Z,76.68
2019-03-30T00:12:40.165Z,76.17
2019-03-30T00:13:40.161Z,76.89
2019-03-30T00:14:40.147Z,75.35
2019-03-30T00:15:40.138Z,76.17
2019-03-30T00:16:40.136Z,76.68
2019-03-30T00:17:40.108Z,76.17
2019-03-30T00:18:41.446Z,76.07
2019-03-30T00:19:40.094Z,76.37
2019-03-30T00:20:40.078Z,76.07
2019-03-30T00:21:40.069Z,76.07
2019-03-30T00:22:40.058Z,76.89
2019-03-30T00:23:40.059Z,76.68
2019-03-30T00:24:40.059Z,76.58
2019-03-30T00:25:40.037Z,76.37
2019-03-30T00:26:40.016Z,76.58
2019-03-30T00:27:40.008Z,77.09
2019-03-30T00:28:40.010Z,76.68
2019-03-30T00:29:40.036Z,76.78
2019-03-30T00:30:39.976Z,76.99
2019-03-30T00:31:39.965Z,77.81
2019-03-30T00:32:39.958Z,77.20
2019-03-30T00:33:39.965Z,76.78
2019-03-30T00:34:39.933Z,76.68
2019-03-30T00:35:39.919Z,76.68
2019-03-30T00:36:39.908Z,76.68
2019-03-30T00:37:39.893Z,76.07
2019-03-30T00:38:39.925Z,76.37
2019-03-30T00:39:39.878Z,77.40
2019-03-30T00:40:39.866Z,76.62
2019-03-30T00:41:39.853Z,76.68
2019-03-30T00:42:39.858Z,76.62
2019-03-30T00:43:39.849Z,76.62
2019-03-30T00:44:39.822Z,76.72
2019-03-30T00:45:39.810Z,76.62
2019-03-30T00:46:39.799Z,76.68
2019-03-30T00:47:39.791Z,77.74
2019-03-30T00:48:39.798Z,77.64
2019-03-30T00:49:48.943Z,77.64
2019-03-30T00:50:40.759Z,77.54
2019-03-30T00:51:39.750Z,77.64
2019-03-30T00:52:39.727Z,77.33
2019-03-30T00:53:39.750Z,77.03
2019-03-30T00:54:39.750Z,77.54
2019-03-30T00:55:39.699Z,77.54
2019-03-30T00:56:39.692Z,77.54
2019-03-30T00:57:39.687Z,77.84
2019-03-30T00:58:39.685Z,77.03
2019-03-30T00:59:39.663Z,77.95
2019-03-30T01:00:39.647Z,77.64
2019-03-30T01:01:39.638Z,76.72
2019-03-30T01:02:39.625Z,77.84
2019-03-30T01:03:39.646Z,77.95
2019-03-30T01:04:39.608Z,76.92
2019-03-30T01:05:39.607Z,77.33
2019-03-30T01:06:39.584Z,77.33
2019-03-30T01:07:39.578Z,76.62
2019-03-30T01:08:39.582Z,76.72
2019-03-30T01:09:39.551Z,76.92
2019-03-30T01:10:39.541Z,76.82
2019-03-30T01:11:39.525Z,76.31
2019-03-30T01:12:39.527Z,76.82
2019-03-30T01:13:39.522Z,77.44
2019-03-30T01:14:39.494Z,76.72
2019-03-30T01:15:39.485Z,76.92
2019-03-30T01:16:39.468Z,77.33
2019-03-30T01:17:39.463Z,77.84
2019-03-30T01:18:39.654Z,77.47
2019-03-30T01:19:39.437Z,78.19
2019-03-30T01:20:39.430Z,77.88
2019-03-30T01:21:39.424Z,77.47
2019-03-30T01:22:39.413Z,77.44
2019-03-30T01:23:39.402Z,77.47
2019-03-30T01:24:39.408Z,77.64
2019-03-30T01:25:39.376Z,77.68
2019-03-30T01:26:39.374Z,77.58
2019-03-30T01:27:39.357Z,77.98
2019-03-30T01:28:39.345Z,77.78
2019-03-30T01:29:39.342Z,77.88
2019-03-30T01:30:48.662Z,77.88
2019-03-30T01:31:47.709Z,77.98
2019-03-30T01:32:49.713Z,77.98
2019-03-30T01:33:48.729Z,77.98
2019-03-30T01:35:55.832Z,77.68
2019-03-30T01:36:55.817Z,77.47
2019-03-30T01:38:05.046Z,77.78
2019-03-30T01:38:55.791Z,77.58
2019-03-30T01:40:06.579Z,77.47
2019-03-30T01:41:05.092Z,77.58
2019-03-30T01:42:05.119Z,77.88
2019-03-30T01:43:06.133Z,77.92
2019-03-30T01:44:04.657Z,77.51
2019-03-30T01:44:55.730Z,77.58
2019-03-30T01:45:55.724Z,77.68
2019-03-30T01:46:55.707Z,77.47
2019-03-30T01:47:55.697Z,77.78
2019-03-30T01:48:55.690Z,78.29
2019-03-30T01:49:55.681Z,77.47
2019-03-30T01:50:55.671Z,77.58
2019-03-30T01:51:55.662Z,77.47
2019-03-30T01:52:55.639Z,77.88
2019-03-30T01:53:55.636Z,77.68
2019-03-30T01:54:55.633Z,77.92
2019-03-30T01:55:55.608Z,78.39
2019-03-30T01:56:55.602Z,77.92
2019-03-30T01:57:55.589Z,77.78
2019-03-30T01:58:55.580Z,77.61
2019-03-30T01:59:55.581Z,78.33
2019-03-30T02:00:55.566Z,78.39
2019-03-30T02:01:55.549Z,77.92
2019-03-30T02:02:55.548Z,78.02
2019-03-30T02:03:55.522Z,78.60
2019-03-30T02:04:55.537Z,77.88
2019-03-30T02:05:55.498Z,77.68
2019-03-30T02:06:55.511Z,77.81
2019-03-30T02:07:55.485Z,77.58
2019-03-30T02:08:55.474Z,77.98
2019-03-30T02:09:55.484Z,78.43
2019-03-30T02:11:03.175Z,78.43
2019-03-30T02:12:04.691Z,78.53
2019-03-30T02:12:55.427Z,78.43
2019-03-30T02:13:55.430Z,78.43
2019-03-30T02:14:55.419Z,79.05
2019-03-30T02:15:55.389Z,77.78
2019-03-30T02:16:55.380Z,78.23
2019-03-30T02:17:55.394Z,78.12
2019-03-30T02:18:55.357Z,78.02
2019-03-30T02:19:55.410Z,77.71
2019-03-30T02:20:55.335Z,77.51
2019-03-30T02:21:55.330Z,77.92
2019-03-30T02:22:55.321Z,77.51
2019-03-30T02:23:55.305Z,77.71
2019-03-30T02:24:55.307Z,77.51
2019-03-30T02:25:55.278Z,78.02
2019-03-30T02:26:55.273Z,78.33
2019-03-30T02:27:55.264Z,78.53
2019-03-30T02:28:55.263Z,79.05
2019-03-30T02:29:55.256Z,78.02
2019-03-30T02:30:55.231Z,78.43
2019-03-30T02:31:55.220Z,78.33
2019-03-30T02:32:55.211Z,78.33
2019-03-30T02:33:55.196Z,78.43
2019-03-30T02:34:55.211Z,78.85
2019-03-30T02:35:55.174Z,78.85
2019-03-30T02:36:55.177Z,78.94
2019-03-30T02:37:55.160Z,79.08
2019-03-30T02:38:55.150Z,79.15
2019-03-30T02:39:55.143Z,79.25
2019-03-30T02:40:55.119Z,79.60
2019-03-30T02:41:55.113Z,78.43
2019-03-30T02:42:55.095Z,78.78
2019-03-30T02:43:55.089Z,79.05
2019-03-30T02:44:55.105Z,78.85
2019-03-30T02:45:55.067Z,78.43
2019-03-30T02:46:55.057Z,78.94
2019-03-30T02:47:55.041Z,78.53
2019-03-30T02:48:55.029Z,78.67
2019-03-30T02:49:55.019Z,78.36
2019-03-30T02:50:55.035Z,78.74
2019-03-30T02:51:54.998Z,78.53
2019-03-30T02:52:55.000Z,79.19
2019-03-30T02:53:54.988Z,79.39
2019-03-30T02:54:54.970Z,79.08
2019-03-30T02:55:54.977Z,79.60
2019-03-30T02:56:54.952Z,79.60
2019-03-30T02:57:54.954Z,79.39
2019-03-30T02:58:54.934Z,80.01
2019-03-30T02:59:54.938Z,79.80
2019-03-30T03:00:54.917Z,80.01
2019-03-30T03:01:54.895Z,79.08
2019-03-30T03:02:54.885Z,79.49
2019-03-30T03:03:54.870Z,79.80
2019-03-30T03:04:54.869Z,79.22
2019-03-30T03:05:54.865Z,79.60
2019-03-30T03:06:54.841Z,78.98
2019-03-30T03:07:54.830Z,78.98
2019-03-30T03:08:54.824Z,79.80
2019-03-30T03:09:54.808Z,79.60
2019-03-30T03:10:54.815Z,79.70
2019-03-30T03:11:54.784Z,79.02
2019-03-30T03:12:54.781Z,79.53
2019-03-30T03:13:54.756Z,79.60
2019-03-30T03:14:54.763Z,78.98
2019-03-30T03:15:54.743Z,79.02
2019-03-30T03:16:54.859Z,79.70
2019-03-30T03:17:54.718Z,79.19
2019-03-30T03:18:54.727Z,78.98
2019-03-30T03:19:54.691Z,79.80
2019-03-30T03:21:07.248Z,79.08
2019-03-30T03:21:55.667Z,79.91
2019-03-30T03:22:54.658Z,78.98
2019-03-30T03:23:54.657Z,79.12
2019-03-30T03:24:54.647Z,79.84
2019-03-30T03:25:54.651Z,79.39
2019-03-30T03:26:54.625Z,79.94
2019-03-30T03:27:54.629Z,79.02
2019-03-30T03:28:54.600Z,79.02
2019-03-30T03:29:54.588Z,80.15
2019-03-30T03:30:54.595Z,79.63
2019-03-30T03:31:54.570Z,80.15
2019-03-30T03:32:54.560Z,80.05
2019-03-30T03:33:54.546Z,79.53
2019-03-30T03:34:54.596Z,79.84
2019-03-30T03:35:54.532Z,79.53
2019-03-30T03:36:54.513Z,79.84
2019-03-30T03:37:54.501Z,79.84
2019-03-30T03:38:54.494Z,79.84
2019-03-30T03:39:54.478Z,79.74
2019-03-30T03:40:54.477Z,78.81
2019-03-30T03:41:54.456Z,79.02
2019-03-30T03:42:54.444Z,79.22
2019-03-30T03:43:54.433Z,79.74
2019-03-30T03:44:54.441Z,80.46
2019-03-30T03:45:54.425Z,80.66
2019-03-30T03:46:54.398Z,80.19
2019-03-30T03:47:54.387Z,79.98
2019-03-30T03:48:54.380Z,80.70
2019-03-30T03:49:54.370Z,80.29
2019-03-30T03:50:54.381Z,80.39
2019-03-30T03:51:54.343Z,80.08
2019-03-30T03:52:54.333Z,79.84
2019-03-30T03:53:54.328Z,79.98
2019-03-30T03:54:54.319Z,80.29
2019-03-30T03:55:54.318Z,80.19
2019-03-30T03:56:54.310Z,80.60
2019-03-30T03:57:54.283Z,79.36
2019-03-30T03:58:54.272Z,79.67
2019-03-30T03:59:54.259Z,79.88
2019-03-30T04:00:54.252Z,80.60
2019-03-30T04:01:54.252Z,80.60
2019-03-30T04:02:54.225Z,80.29
2019-03-30T04:03:54.211Z,79.98
2019-03-30T04:04:54.204Z,79.67
2019-03-30T04:05:54.206Z,80.60
2019-03-30T04:06:54.195Z,80.19
2019-03-30T04:07:54.167Z,80.05
2019-03-30T04:08:54.222Z,80.29
2019-03-30T04:09:54.150Z,80.70
2019-03-30T04:10:54.141Z,79.88
2019-03-30T04:11:54.159Z,80.60
2019-03-30T04:12:54.138Z,80.39
2019-03-30T04:13:54.108Z,80.39
2019-03-30T04:14:54.097Z,80.39
2019-03-30T04:15:54.101Z,79.57
2019-03-30T04:16:54.094Z,79.47
2019-03-30T04:17:54.069Z,80.19
2019-03-30T04:18:54.063Z,80.08
2019-03-30T04:19:54.059Z,80.39
2019-03-30T04:20:54.033Z,80.91
2019-03-30T04:21:54.054Z,80.91
2019-03-30T04:22:54.014Z,81.01
2019-03-30T04:23:54.543Z,81.21
2019-03-30T04:25:03.223Z,81.35
2019-03-30T04:25:53.967Z,80.94
2019-03-30T04:26:53.971Z,80.94
2019-03-30T04:27:53.945Z,81.15
2019-03-30T04:28:53.935Z,81.15
2019-03-30T04:29:53.940Z,80.74
2019-03-30T04:30:53.916Z,81.05
2019-03-30T04:31:53.912Z,81.25
2019-03-30T04:32:53.893Z,80.53
2019-03-30T04:33:53.885Z,80.84
2019-03-30T04:34:53.871Z,80.53
2019-03-30T04:35:53.859Z,80.43
2019-03-30T04:36:53.861Z,80.94
2019-03-30T04:37:53.838Z,80.53
2019-03-30T04:38:53.827Z,81.29
2019-03-30T04:39:53.818Z,81.29
2019-03-30T04:40:53.818Z,81.39
2019-03-30T04:41:53.801Z,81.09
2019-03-30T04:42:53.784Z,81.29
2019-03-30T04:43:53.771Z,81.49
2019-03-30T04:44:53.762Z,81.49
2019-03-30T04:45:53.752Z,80.88
2019-03-30T04:46:53.750Z,81.29
2019-03-30T04:47:53.728Z,80.57
2019-03-30T04:48:53.719Z,81.39
2019-03-30T04:49:53.706Z,80.98
2019-03-30T04:50:53.695Z,81.60
2019-03-30T04:51:57.777Z,81.09
2019-03-30T04:52:53.674Z,81.39
2019-03-30T04:53:53.662Z,81.70
2019-03-30T04:54:53.654Z,81.60
2019-03-30T04:55:53.642Z,80.98
2019-03-30T04:56:53.643Z,80.88
2019-03-30T04:57:53.619Z,80.57
2019-03-30T04:58:53.610Z,80.88
2019-03-30T04:59:53.598Z,81.19
2019-03-30T05:00:53.590Z,80.57
2019-03-30T05:01:53.589Z,80.36
2019-03-30T05:02:53.565Z,81.49
2019-03-30T05:03:53.554Z,80.98
2019-03-30T05:04:53.545Z,80.88
2019-03-30T05:05:53.531Z,81.09
2019-03-30T05:06:53.538Z,81.09
2019-03-30T05:07:53.517Z,81.29
2019-03-30T05:08:53.500Z,81.29
2019-03-30T05:09:53.489Z,81.49
2019-03-30T05:10:53.480Z,81.91
2019-03-30T05:11:53.482Z,81.70
2019-03-30T05:12:53.457Z,81.91
2019-03-30T05:13:53.449Z,81.91
2019-03-30T05:14:53.435Z,82.11
2019-03-30T05:15:53.423Z,81.81
2019-03-30T05:16:53.421Z,81.39
2019-03-30T05:17:53.406Z,81.70
2019-03-30T05:18:53.390Z,81.91
2019-03-30T05:19:53.380Z,81.60
2019-03-30T05:20:53.369Z,81.49
2019-03-30T05:21:53.369Z,80.98
2019-03-30T05:22:53.348Z,81.81
2019-03-30T05:23:53.337Z,81.60
2019-03-30T05:24:53.327Z,81.81
2019-03-30T05:25:53.315Z,81.29
2019-03-30T05:26:53.331Z,81.29
2019-03-30T05:27:53.294Z,81.60
2019-03-30T05:28:53.284Z,81.49
2019-03-30T05:29:53.272Z,80.77
2019-03-30T05:30:53.261Z,81.46
2019-03-30T05:31:53.250Z,81.39
2019-03-30T05:33:05.125Z,81.46
2019-03-30T05:33:54.226Z,81.56
2019-03-30T05:34:53.216Z,81.35
2019-03-30T05:35:53.206Z,81.46
2019-03-30T05:36:53.196Z,81.25
2019-03-30T05:37:53.195Z,81.05
2019-03-30T05:38:53.177Z,81.05
2019-03-30T05:39:53.168Z,81.15
2019-03-30T05:40:53.151Z,81.56
2019-03-30T05:41:53.143Z,80.84
2019-03-30T05:42:53.139Z,81.35
2019-03-30T05:43:53.121Z,81.21
2019-03-30T05:44:53.112Z,81.25
2019-03-30T05:45:53.100Z,81.35
2019-03-30T05:46:53.093Z,81.35
2019-03-30T05:47:53.085Z,81.15
2019-03-30T05:48:53.064Z,80.94
2019-03-30T05:49:53.054Z,80.94
2019-03-30T05:50:53.043Z,81.21
2019-03-30T05:51:53.034Z,80.91
2019-03-30T05:52:53.033Z,80.80
2019-03-30T05:53:53.012Z,80.80
2019-03-30T05:54:53.003Z,80.60
2019-03-30T05:55:52.990Z,80.29
2019-03-30T05:56:52.978Z,80.29
2019-03-30T05:57:52.978Z,79.84
2019-03-30T05:58:52.959Z,80.46
2019-03-30T05:59:55.668Z,80.56
2019-03-30T06:00:52.936Z,80.35
2019-03-30T06:01:52.922Z,80.35
2019-03-30T06:02:52.924Z,79.94
2019-03-30T06:03:52.904Z,79.63
2019-03-30T06:04:52.893Z,79.29
2019-03-30T06:05:52.885Z,79.22
2019-03-30T06:06:52.869Z,78.47
2019-03-30T06:07:52.861Z,78.67
2019-03-30T06:08:52.861Z,78.16
2019-03-30T06:09:52.836Z,78.27
2019-03-30T06:10:52.825Z,77.71
2019-03-30T06:11:52.816Z,77.51
2019-03-30T06:12:52.805Z,77.81
2019-03-30T06:13:52.800Z,76.45
2019-03-30T06:14:52.780Z,76.86
2019-03-30T06:15:52.784Z,76.45
2019-03-30T06:16:52.848Z,76.24
2019-03-30T06:17:52.750Z,76.51
2019-03-30T06:18:52.749Z,76.20
2019-03-30T06:19:52.727Z,75.86
2019-03-30T06:20:52.716Z,75.15
2019-03-30T06:21:52.705Z,75.04
2019-03-30T06:22:52.693Z,74.73
2019-03-30T06:23:52.691Z,74.19
2019-03-30T06:24:52.674Z,73.98
2019-03-30T06:25:52.661Z,73.68
2019-03-30T06:26:52.650Z,73.23
2019-03-30T06:27:52.639Z,73.23
2019-03-30T06:28:52.635Z,73.13
2019-03-30T06:29:52.617Z,72.99
2019-03-30T06:30:52.606Z,72.58
2019-03-30T06:31:52.597Z,71.97
2019-03-30T06:32:52.586Z,71.83
2019-03-30T06:33:52.587Z,71.42
2019-03-30T06:34:52.580Z,71.53
2019-03-30T06:35:52.554Z,71.12
2019-03-30T06:36:52.541Z,71.19
2019-03-30T06:37:52.535Z,70.67
2019-03-30T06:38:52.536Z,70.47
2019-03-30T06:39:52.507Z,70.54
2019-03-30T06:40:52.497Z,70.34
2019-03-30T06:41:52.486Z,69.52
2019-03-30T06:42:52.476Z,69.21
2019-03-30T06:43:52.474Z,69.93
2019-03-30T06:44:52.542Z,69.52
2019-03-30T06:45:52.441Z,68.97
2019-03-30T06:46:52.433Z,69.18
2019-03-30T06:47:52.420Z,68.77
2019-03-30T06:48:52.429Z,68.33
2019-03-30T06:49:52.397Z,68.60
2019-03-30T06:50:52.388Z,68.09
2019-03-30T06:51:52.379Z,67.38
2019-03-30T06:52:57.974Z,67.76
2019-03-30T06:53:53.360Z,66.53
2019-03-30T06:54:52.343Z,66.63
2019-03-30T06:55:52.333Z,67.32
2019-03-30T06:56:52.321Z,67.32
2019-03-30T06:57:52.311Z,66.57
2019-03-30T06:58:52.309Z,66.57
2019-03-30T06:59:52.287Z,66.57
2019-03-30T07:00:52.278Z,66.74
2019-03-30T07:01:52.267Z,66.13
2019-03-30T07:02:52.254Z,65.08
2019-03-30T07:03:52.258Z,64.60
2019-03-30T07:04:52.233Z,64.98
2019-03-30T07:05:52.222Z,64.60
2019-03-30T07:06:52.209Z,64.40
2019-03-30T07:07:52.200Z,65.04
2019-03-30T07:08:52.221Z,65.86
2019-03-30T07:09:52.179Z,65.31
2019-03-30T07:10:52.165Z,65.04
2019-03-30T07:11:52.156Z,65.95
2019-03-30T07:12:52.143Z,65.11
2019-03-30T07:13:52.141Z,64.81
2019-03-30T07:14:52.130Z,65.08
2019-03-30T07:15:52.111Z,64.17
2019-03-30T07:16:52.104Z,64.67
2019-03-30T07:17:52.098Z,64.44
2019-03-30T07:18:52.080Z,64.34
2019-03-30T07:19:52.080Z,63.70
2019-03-30T07:20:52.059Z,64.61
2019-03-30T07:21:52.047Z,63.09
2019-03-30T07:22:52.037Z,63.67
2019-03-30T07:23:52.023Z,63.67
2019-03-30T07:24:52.021Z,62.93
2019-03-30T07:25:52.011Z,63.84
2019-03-30T07:26:51.991Z,61.98
2019-03-30T07:27:51.982Z,60.97
2019-03-30T07:28:51.971Z,61.47
2019-03-30T07:29:51.965Z,61.65
2019-03-30T07:30:51.947Z,61.07
2019-03-30T07:31:51.939Z,60.97
2019-03-30T07:32:51.928Z,60.15
2019-03-30T07:33:51.920Z,60.94
2019-03-30T07:34:51.932Z,60.97
2019-03-30T07:35:51.896Z,60.53
2019-03-30T07:36:51.881Z,60.60
2019-03-30T07:37:51.870Z,61.01
2019-03-30T07:38:51.859Z,61.32
2019-03-30T07:39:51.856Z,60.37
2019-03-30T07:40:51.838Z,61.08
2019-03-30T07:41:51.827Z,60.65
2019-03-30T07:42:51.824Z,59.33
2019-03-30T07:43:51.805Z,57.40
2019-03-30T07:44:51.804Z,57.60
2019-03-30T07:45:51.783Z,56.99
2019-03-30T07:46:51.772Z,57.30
2019-03-30T07:47:51.764Z,57.20
2019-03-30T07:48:51.753Z,56.99
2019-03-30T07:49:51.745Z,56.90
2019-03-30T07:50:51.727Z,56.99
2019-03-30T07:51:51.718Z,57.28
2019-03-30T07:52:51.704Z,57.48
2019-03-30T07:53:51.694Z,57.68
2019-03-30T07:54:51.690Z,57.55
2019-03-30T07:55:51.672Z,56.54
2019-03-30T07:57:04.151Z,56.84
2019-03-30T07:57:52.687Z,56.51
2019-03-30T07:58:51.646Z,57.12
2019-03-30T07:59:51.638Z,55.80
2019-03-30T08:00:51.621Z,55.88
2019-03-30T08:01:51.607Z,55.19
2019-03-30T08:02:51.594Z,55.47
2019-03-30T08:03:51.584Z,55.27
2019-03-30T08:04:51.583Z,54.97
2019-03-30T08:05:54.238Z,54.76
2019-03-30T08:06:51.551Z,55.15
2019-03-30T08:07:51.548Z,54.56
2019-03-30T08:08:51.530Z,54.13
2019-03-30T08:09:51.556Z,54.05
2019-03-30T08:10:51.507Z,53.93
2019-03-30T08:11:51.497Z,54.00
2019-03-30T08:12:51.485Z,52.79
2019-03-30T08:13:51.474Z,54.00
2019-03-30T08:14:51.469Z,54.11
2019-03-30T08:15:51.461Z,54.41
2019-03-30T08:16:51.440Z,53.47
2019-03-30T08:17:51.430Z,54.16
2019-03-30T08:18:51.420Z,54.56
2019-03-30T08:19:51.407Z,53.12
2019-03-30T08:20:51.405Z,52.31
2019-03-30T08:21:51.400Z,51.81
2019-03-30T08:22:51.375Z,52.51
2019-03-30T08:23:51.363Z,51.91
2019-03-30T08:24:51.367Z,51.81
2019-03-30T08:25:51.349Z,50.90
2019-03-30T08:26:51.331Z,51.71
2019-03-30T08:27:51.320Z,51.61
2019-03-30T08:28:51.310Z,51.07
2019-03-30T08:29:51.303Z,51.07
2019-03-30T08:30:51.298Z,51.48
2019-03-30T08:31:51.275Z,50.49
2019-03-30T08:32:51.264Z,51.48
2019-03-30T08:33:51.255Z,50.67
2019-03-30T08:34:51.248Z,50.27
2019-03-30T08:35:51.240Z,50.67
2019-03-30T08:36:51.225Z,50.57
2019-03-30T08:37:51.211Z,50.47
2019-03-30T08:38:51.202Z,51.58
2019-03-30T08:39:51.191Z,50.55
2019-03-30T08:40:51.186Z,50.45
2019-03-30T08:41:51.171Z,49.76
2019-03-30T08:42:51.157Z,51.45
2019-03-30T08:43:51.149Z,50.57
2019-03-30T08:44:51.135Z,50.24
2019-03-30T08:45:51.135Z,50.52
2019-03-30T08:46:51.122Z,50.02
2019-03-30T08:47:51.100Z,49.39
2019-03-30T08:48:51.089Z,49.49
2019-03-30T08:49:51.079Z,49.90
2019-03-30T08:50:51.078Z,49.09
2019-03-30T08:51:51.058Z,48.38
2019-03-30T08:52:51.045Z,47.70
2019-03-30T08:53:54.687Z,50.32
2019-03-30T08:54:51.026Z,48.58
2019-03-30T08:55:51.028Z,49.49
2019-03-30T08:56:51.004Z,48.79
2019-03-30T08:57:50.992Z,48.46
2019-03-30T08:58:50.981Z,49.07
2019-03-30T08:59:50.977Z,48.56
2019-03-30T09:00:50.967Z,48.16
2019-03-30T09:01:50.950Z,47.86
2019-03-30T09:02:50.950Z,47.66
2019-03-30T09:03:50.925Z,48.14
2019-03-30T09:04:50.915Z,49.42
2019-03-30T09:05:50.921Z,49.73
2019-03-30T09:06:50.895Z,46.78
2019-03-30T09:07:50.881Z,46.78
2019-03-30T09:08:50.905Z,46.70
2019-03-30T09:09:50.863Z,47.11
2019-03-30T09:10:50.858Z,46.08
2019-03-30T09:11:50.837Z,45.70
2019-03-30T09:12:50.827Z,45.59
2019-03-30T09:13:50.817Z,45.78
2019-03-30T09:14:50.807Z,46.68
2019-03-30T09:15:50.832Z,45.98
2019-03-30T09:16:50.782Z,45.98
2019-03-30T09:17:50.772Z,46.68
2019-03-30T09:18:50.768Z,44.77
2019-03-30T09:19:50.750Z,45.87
2019-03-30T09:20:50.744Z,46.78
2019-03-30T09:21:50.737Z,46.28
2019-03-30T09:22:50.717Z,47.39
2019-03-30T09:23:50.723Z,46.08
2019-03-30T09:24:50.697Z,46.56
2019-03-30T09:25:50.683Z,46.26
2019-03-30T09:26:50.694Z,45.65
2019-03-30T09:27:50.664Z,43.95
2019-03-30T09:28:50.652Z,44.24
2019-03-30T09:29:50.644Z,44.85
2019-03-30T09:30:50.632Z,44.83
2019-03-30T09:31:50.630Z,44.83
2019-03-30T09:32:50.611Z,44.23
2019-03-30T09:33:50.601Z,45.01
2019-03-30T09:34:50.587Z,43.38
2019-03-30T09:35:50.575Z,42.05
2019-03-30T09:36:50.711Z,42.13
2019-03-30T09:37:50.567Z,41.91
2019-03-30T09:38:50.562Z,41.69
2019-03-30T09:39:50.534Z,41.55
2019-03-30T09:40:50.526Z,39.63
2019-03-30T09:41:50.520Z,39.00
2019-03-30T09:42:50.500Z,38.87
2019-03-30T09:43:50.491Z,38.16
2019-03-30T09:44:50.480Z,38.36
2019-03-30T09:45:50.468Z,37.24
2019-03-30T09:46:50.467Z,37.84
2019-03-30T09:47:50.453Z,38.10
2019-03-30T09:48:50.443Z,36.41
2019-03-30T09:49:50.426Z,36.59
2019-03-30T09:50:50.417Z,35.58
2019-03-30T09:51:50.416Z,35.16
2019-03-30T09:52:50.393Z,36.64
2019-03-30T09:53:50.388Z,35.33
2019-03-30T09:54:50.377Z,33.72
2019-03-30T09:55:50.362Z,34.40
2019-03-30T09:56:50.368Z,34.10
2019-03-30T09:57:50.369Z,32.69
2019-03-30T09:58:50.331Z,33.39
2019-03-30T09:59:50.321Z,33.69
2019-03-30T10:00:50.310Z,33.07
2019-03-30T10:01:50.320Z,33.27
2019-03-30T10:02:50.290Z,31.88
2019-03-30T10:03:50.315Z,32.57
2019-03-30T10:04:50.272Z,32.86
2019-03-30T10:05:50.277Z,31.87
2019-03-30T10:06:50.259Z,34.05
2019-03-30T10:07:50.246Z,31.55
2019-03-30T10:08:50.226Z,32.46
2019-03-30T10:09:50.221Z,33.25
2019-03-30T10:10:50.206Z,31.65
2019-03-30T10:11:50.206Z,30.86
2019-03-30T10:12:50.308Z,31.50
2019-03-30T10:13:50.177Z,32.11
2019-03-30T10:14:50.166Z,31.80
2019-03-30T10:15:50.182Z,32.66
2019-03-30T10:16:50.349Z,31.27
2019-03-30T10:17:50.797Z,31.18
2019-03-30T10:18:50.126Z,31.80
2019-03-30T10:20:03.690Z,31.09
2019-03-30T10:20:51.100Z,32.36
2019-03-30T10:21:50.101Z,29.86
2019-03-30T10:22:50.082Z,31.14
2019-03-30T10:23:50.070Z,31.32
2019-03-30T10:24:50.060Z,30.22
2019-03-30T10:27:06.319Z,30.30
2019-03-30T10:28:06.262Z,29.30
2019-03-30T10:29:06.254Z,28.83
2019-03-30T10:30:06.254Z,30.32
2019-03-30T10:31:07.970Z,30.00
2019-03-30T10:32:06.235Z,28.51
2019-03-30T10:33:06.208Z,29.11
2019-03-30T10:34:06.200Z,29.90
2019-03-30T10:35:06.192Z,28.99
2019-03-30T10:36:06.184Z,29.47
2019-03-30T10:37:06.194Z,28.78
2019-03-30T10:38:06.161Z,28.47
2019-03-30T10:39:06.158Z,27.47
2019-03-30T10:40:06.154Z,28.45
2019-03-30T10:41:06.144Z,28.47
2019-03-30T10:42:06.142Z,27.86
2019-03-30T10:43:06.165Z,27.76
2019-03-30T10:44:06.145Z,27.35
2019-03-30T10:45:06.095Z,27.34
2019-03-30T10:46:06.086Z,28.23
2019-03-30T10:47:06.098Z,27.91
2019-03-30T10:48:06.062Z,26.40
2019-03-30T10:49:06.056Z,25.32
2019-03-30T10:50:06.041Z,25.39
2019-03-30T10:51:06.037Z,24.76
2019-03-30T10:52:06.045Z,25.16
2019-03-30T10:53:06.022Z,25.26
2019-03-30T10:54:06.008Z,24.86
2019-03-30T10:55:06.022Z,24.68
2019-03-30T10:56:06.005Z,24.38
2019-03-30T10:57:05.991Z,24.08
2019-03-30T10:58:05.963Z,24.99
2019-03-30T10:59:05.970Z,26.47
2019-03-30T11:00:06.524Z,26.56
2019-03-30T11:01:05.941Z,26.54
2019-03-30T11:02:06.010Z,25.94
2019-03-30T11:03:05.918Z,23.65
2019-03-30T11:04:05.921Z,24.44
2019-03-30T11:05:05.948Z,22.85
2019-03-30T11:06:05.890Z,23.33
2019-03-30T11:07:06.063Z,24.49
2019-03-30T11:08:05.884Z,22.62
2019-03-30T11:09:05.859Z,22.62
2019-03-30T11:10:05.848Z,23.59
2019-03-30T11:11:05.843Z,22.41
2019-03-30T11:12:05.923Z,22.41
2019-03-30T11:13:05.835Z,22.50
2019-03-30T11:14:05.821Z,22.09
2019-03-30T11:15:05.811Z,21.88
2019-03-30T11:16:05.824Z,21.58
2019-03-30T11:17:05.787Z,20.80
2019-03-30T11:18:05.875Z,20.51
2019-03-30T11:19:05.758Z,20.61
2019-03-30T11:20:05.768Z,21.78
2019-03-30T11:21:05.780Z,20.82
2019-03-30T11:22:05.741Z,20.83
2019-03-30T11:23:05.737Z,22.41
2019-03-30T11:24:06.996Z,22.55
2019-03-30T11:25:08.552Z,24.33
2019-03-30T11:26:09.493Z,23.95
2019-03-30T11:27:05.687Z,22.67
2019-03-30T11:28:08.125Z,21.78
2019-03-30T11:29:05.664Z,22.06
2019-03-30T11:30:05.705Z,21.94
2019-03-30T11:31:05.773Z,21.64
2019-03-30T11:32:05.643Z,21.36
2019-03-30T11:33:06.536Z,21.45
2019-03-30T11:34:05.626Z,21.06
2019-03-30T11:35:05.632Z,21.04
2019-03-30T11:36:05.721Z,21.71
2019-03-30T11:37:05.653Z,21.01
2019-03-30T11:38:05.592Z,20.32
2019-03-30T11:39:05.600Z,20.12
2019-03-30T11:40:05.593Z,20.32
2019-03-30T11:41:05.713Z,19.71
2019-03-30T11:42:05.551Z,19.88
2019-03-30T11:43:05.748Z,20.25
2019-03-30T11:44:05.521Z,18.66
2019-03-30T11:45:05.523Z,17.88
2019-03-30T11:46:05.506Z,18.95
2019-03-30T11:47:05.496Z,17.19
2019-03-30T11:48:06.067Z,18.35
2019-03-30T11:49:05.488Z,17.84
2019-03-30T11:50:05.468Z,16.77
2019-03-30T11:51:05.475Z,16.86
2019-03-30T11:52:05.450Z,15.78
2019-03-30T11:53:05.483Z,15.59
2019-03-30T11:54:05.574Z,15.61
2019-03-30T11:55:05.440Z,15.02
2019-03-30T11:56:05.420Z,15.71
2019-03-30T11:57:05.409Z,15.81
2019-03-30T11:58:05.404Z,16.98
2019-03-30T11:59:05.405Z,15.61
2019-03-30T12:00:05.375Z,15.42
2019-03-30T12:01:05.372Z,16.89
2019-03-30T12:02:05.355Z,16.61
2019-03-30T12:03:05.410Z,17.20
2019-03-30T12:04:05.349Z,17.21
2019-03-30T12:05:05.331Z,17.43
2019-03-30T12:06:05.331Z,17.53
2019-03-30T12:07:05.311Z,18.80
2019-03-30T12:08:05.321Z,19.11
2019-03-30T12:09:05.390Z,18.72
2019-03-30T12:10:05.381Z,18.90
2019-03-30T12:11:05.306Z,18.50
2019-03-30T12:12:05.338Z,16.35
2019-03-30T12:13:05.258Z,17.38
2019-03-30T12:14:05.270Z,16.69
2019-03-30T12:15:05.240Z,16.28
2019-03-30T12:16:05.259Z,16.06
2019-03-30T12:17:05.251Z,14.79
2019-03-30T12:18:05.230Z,15.37
2019-03-30T12:19:05.248Z,14.50
2019-03-30T12:20:05.224Z,15.66
2019-03-30T12:21:05.280Z,15.27
2019-03-30T12:22:05.184Z,15.37
2019-03-30T12:23:05.177Z,14.89
2019-03-30T12:24:05.183Z,15.08
2019-03-30T12:25:05.157Z,15.08
2019-03-30T12:26:05.287Z,15.48
2019-03-30T12:27:05.141Z,14.61
2019-03-30T12:28:05.136Z,14.90
2019-03-30T12:29:05.146Z,14.90
2019-03-30T12:30:05.173Z,14.70
2019-03-30T12:31:05.116Z,15.58
2019-03-30T12:32:05.109Z,14.42
2019-03-30T12:33:05.125Z,15.09
2019-03-30T12:34:05.230Z,15.10
2019-03-30T12:35:05.075Z,14.71
2019-03-30T12:36:05.069Z,14.61
2019-03-30T12:37:05.065Z,14.81
2019-03-30T12:38:05.093Z,15.38
2019-03-30T12:39:06.063Z,14.40
2019-03-30T12:40:05.066Z,14.30
2019-03-30T12:41:05.026Z,15.17
2019-03-30T12:42:05.014Z,15.45
2019-03-30T12:43:05.059Z,14.98
2019-03-30T12:44:05.009Z,15.28
2019-03-30T12:45:05.001Z,15.19
2019-03-30T12:46:05.012Z,15.11
2019-03-30T12:47:04.981Z,15.80
2019-03-30T12:48:04.964Z,15.23
2019-03-30T12:49:04.963Z,15.55
2019-03-30T12:50:04.967Z,16.94
2019-03-30T12:51:04.939Z,17.44
2019-03-30T12:52:04.924Z,16.80
2019-03-30T12:53:04.906Z,17.80
2019-03-30T12:54:04.910Z,18.91
2019-03-30T12:55:04.931Z,20.12